Terminal Aerodrome Forecast
Issued by NWS Twin Cities, MN

Current Version | Previous Version | Text Only | Print | Product List | Glossary On
Versions: 1 2 3 4 5 6 7 8 9 10 11 12 13 14 15 16 17 18 19 20
000
FTUS43 KMPX 261139
TAFSTC
TAF
KSTC 261139Z 2612/2712 19008KT P6SM OVC012
      TEMPO 2612/2614 OVC008
     FM261500 28011KT P6SM SCT015 BKN120
     FM261700 30012KT P6SM BKN025
     FM270300 32007KT P6SM SCT020 BKN100
     FM270800 VRB03KT P6SM BKN100=

USA.gov is the U.S. government's official web portal to all federal, state and local government web resources and services.